sensor_id;sensor_type;location;lat;lon;timestamp;P1;durP1;ratioP1;P2;durP2;ratioP2
22211;SDS011;11275;52.488;13.462;2023-06-26T00:02:05;8.65;;;6.43;;
22211;SDS011;11275;52.488;13.462;2023-06-26T00:04:31;6.70;;;6.10;;
22211;SDS011;11275;52.488;13.462;2023-06-26T00:06:56;7.13;;;6.53;;
22211;SDS011;11275;52.488;13.462;2023-06-26T00:09:22;7.22;;;6.53;;
22211;SDS011;11275;52.488;13.462;2023-06-26T00:11:48;8.23;;;6.22;;
22211;SDS011;11275;52.488;13.462;2023-06-26T00:14:13;6.63;;;6.03;;
22211;SDS011;11275;52.488;13.462;2023-06-26T00:16:39;6.80;;;6.20;;
22211;SDS011;11275;52.488;13.462;2023-06-26T00:19:07;7.10;;;6.40;;
22211;SDS011;11275;52.488;13.462;2023-06-26T00:21:33;6.90;;;6.30;;
22211;SDS011;11275;52.488;13.462;2023-06-26T00:23:59;6.60;;;6.00;;
22211;SDS011;11275;52.488;13.462;2023-06-26T00:26:24;6.72;;;6.13;;
22211;SDS011;11275;52.488;13.462;2023-06-26T00:28:50;8.68;;;6.53;;
22211;SDS011;11275;52.488;13.462;2023-06-26T00:31:16;6.47;;;5.88;;
22211;SDS011;11275;52.488;13.462;2023-06-26T00:33:41;6.95;;;6.25;;
22211;SDS011;11275;52.488;13.462;2023-06-26T00:36:07;6.85;;;6.25;;
22211;SDS011;11275;52.488;13.462;2023-06-26T00:38:33;6.93;;;6.22;;
22211;SDS011;11275;52.488;13.462;2023-06-26T00:40:59;7.25;;;6.55;;
22211;SDS011;11275;52.488;13.462;2023-06-26T00:43:25;6.93;;;6.22;;
22211;SDS011;11275;52.488;13.462;2023-06-26T00:45:51;7.40;;;6.80;;
22211;SDS011;11275;52.488;13.462;2023-06-26T00:48:16;7.20;;;6.50;;
22211;SDS011;11275;52.488;13.462;2023-06-26T00:50:43;7.13;;;6.13;;
22211;SDS011;11275;52.488;13.462;2023-06-26T00:53:09;7.53;;;6.70;;
22211;SDS011;11275;52.488;13.462;2023-06-26T00:55:36;7.57;;;6.82;;
22211;SDS011;11275;52.488;13.462;2023-06-26T00:58:02;7.30;;;6.60;;
22211;SDS011;11275;52.488;13.462;2023-06-26T01:00:27;6.70;;;5.95;;
22211;SDS011;11275;52.488;13.462;2023-06-26T01:02:53;9.30;;;6.72;;
22211;SDS011;11275;52.488;13.462;2023-06-26T01:05:24;7.68;;;6.97;;
22211;SDS011;11275;52.488;13.462;2023-06-26T01:07:50;7.00;;;6.40;;
22211;SDS011;11275;52.488;13.462;2023-06-26T01:10:16;7.20;;;6.60;;
22211;SDS011;11275;52.488;13.462;2023-06-26T01:12:42;7.15;;;6.55;;
22211;SDS011;11275;52.488;13.462;2023-06-26T01:15:08;6.80;;;6.20;;
22211;SDS011;11275;52.488;13.462;2023-06-26T01:17:34;7.35;;;6.65;;
22211;SDS011;11275;52.488;13.462;2023-06-26T01:20:03;7.72;;;7.10;;
22211;SDS011;11275;52.488;13.462;2023-06-26T01:28:26;7.75;;;7.13;;
22211;SDS011;11275;52.488;13.462;2023-06-26T01:30:53;7.75;;;7.05;;
22211;SDS011;11275;52.488;13.462;2023-06-26T01:33:19;8.23;;;7.43;;
22211;SDS011;11275;52.488;13.462;2023-06-26T01:35:45;7.63;;;7.03;;
22211;SDS011;11275;52.488;13.462;2023-06-26T01:38:20;7.93;;;7.18;;
22211;SDS011;11275;52.488;13.462;2023-06-26T01:40:48;8.93;;;7.03;;
22211;SDS011;11275;52.488;13.462;2023-06-26T01:43:27;7.75;;;7.05;;
22211;SDS011;11275;52.488;13.462;2023-06-26T01:45:56;8.43;;;7.05;;
22211;SDS011;11275;52.488;13.462;2023-06-26T01:48:29;7.40;;;6.80;;
22211;SDS011;11275;52.488;13.462;2023-06-26T01:50:59;7.75;;;7.10;;
22211;SDS011;11275;52.488;13.462;2023-06-26T01:53:26;7.35;;;6.75;;
22211;SDS011;11275;52.488;13.462;2023-06-26T01:55:59;7.25;;;6.65;;
22211;SDS011;11275;52.488;13.462;2023-06-26T01:58:28;7.50;;;6.90;;
22211;SDS011;11275;52.488;13.462;2023-06-26T02:00:55;7.78;;;7.07;;
22211;SDS011;11275;52.488;13.462;2023-06-26T02:03:20;8.00;;;7.18;;
22211;SDS011;11275;52.488;13.462;2023-06-26T02:05:49;8.00;;;7.32;;
22211;SDS011;11275;52.488;13.462;2023-06-26T02:08:15;7.63;;;6.95;;
22211;SDS011;11275;52.488;13.462;2023-06-26T02:10:41;7.90;;;7.10;;
22211;SDS011;11275;52.488;13.462;2023-06-26T02:13:07;7.65;;;7.05;;
22211;SDS011;11275;52.488;13.462;2023-06-26T02:15:33;7.90;;;7.10;;
22211;SDS011;11275;52.488;13.462;2023-06-26T02:17:58;8.30;;;7.60;;
22211;SDS011;11275;52.488;13.462;2023-06-26T02:20:24;7.45;;;6.85;;
22211;SDS011;11275;52.488;13.462;2023-06-26T02:22:50;8.20;;;7.50;;
22211;SDS011;11275;52.488;13.462;2023-06-26T02:25:17;7.57;;;6.97;;
22211;SDS011;11275;52.488;13.462;2023-06-26T02:27:43;8.85;;;7.95;;
22211;SDS011;11275;52.488;13.462;2023-06-26T02:30:09;8.30;;;7.53;;
22211;SDS011;11275;52.488;13.462;2023-06-26T02:32:34;9.30;;;8.40;;
22211;SDS011;11275;52.488;13.462;2023-06-26T02:35:00;9.40;;;8.50;;
22211;SDS011;11275;52.488;13.462;2023-06-26T02:37:26;9.70;;;8.80;;
22211;SDS011;11275;52.488;13.462;2023-06-26T02:39:52;8.32;;;7.57;;
22211;SDS011;11275;52.488;13.462;2023-06-26T02:42:18;8.95;;;8.13;;
22211;SDS011;11275;52.488;13.462;2023-06-26T02:44:43;8.70;;;7.90;;
22211;SDS011;11275;52.488;13.462;2023-06-26T02:47:09;8.93;;;8.20;;
22211;SDS011;11275;52.488;13.462;2023-06-26T02:49:34;8.65;;;7.85;;
22211;SDS011;11275;52.488;13.462;2023-06-26T02:52:00;8.73;;;7.93;;
22211;SDS011;11275;52.488;13.462;2023-06-26T02:54:26;8.25;;;7.55;;
22211;SDS011;11275;52.488;13.462;2023-06-26T02:56:52;10.27;;;8.10;;
22211;SDS011;11275;52.488;13.462;2023-06-26T02:59:17;9.25;;;8.45;;
22211;SDS011;11275;52.488;13.462;2023-06-26T03:01:43;8.68;;;7.88;;
22211;SDS011;11275;52.488;13.462;2023-06-26T03:04:09;8.50;;;7.78;;
22211;SDS011;11275;52.488;13.462;2023-06-26T03:06:35;9.05;;;8.13;;
22211;SDS011;11275;52.488;13.462;2023-06-26T03:09:01;9.05;;;8.27;;
22211;SDS011;11275;52.488;13.462;2023-06-26T03:11:27;8.98;;;8.07;;
22211;SDS011;11275;52.488;13.462;2023-06-26T03:13:53;8.77;;;7.82;;
22211;SDS011;11275;52.488;13.462;2023-06-26T03:16:19;8.98;;;8.13;;
22211;SDS011;11275;52.488;13.462;2023-06-26T03:18:45;9.05;;;8.15;;
22211;SDS011;11275;52.488;13.462;2023-06-26T03:21:10;9.13;;;8.32;;
22211;SDS011;11275;52.488;13.462;2023-06-26T03:23:36;9.13;;;8.30;;
22211;SDS011;11275;52.488;13.462;2023-06-26T03:26:02;9.18;;;8.38;;
22211;SDS011;11275;52.488;13.462;2023-06-26T03:28:27;9.70;;;8.80;;
22211;SDS011;11275;52.488;13.462;2023-06-26T03:30:53;9.32;;;8.45;;
22211;SDS011;11275;52.488;13.462;2023-06-26T03:33:19;9.35;;;8.40;;
22211;SDS011;11275;52.488;13.462;2023-06-26T03:35:48;9.82;;;8.82;;
22211;SDS011;11275;52.488;13.462;2023-06-26T03:38:13;9.93;;;8.93;;
22211;SDS011;11275;52.488;13.462;2023-06-26T03:40:39;8.80;;;8.00;;
22211;SDS011;11275;52.488;13.462;2023-06-26T03:43:04;9.00;;;8.20;;
22211;SDS011;11275;52.488;13.462;2023-06-26T03:45:30;9.77;;;8.77;;
22211;SDS011;11275;52.488;13.462;2023-06-26T03:47:55;9.18;;;8.38;;
22211;SDS011;11275;52.488;13.462;2023-06-26T03:50:21;9.50;;;8.60;;
22211;SDS011;11275;52.488;13.462;2023-06-26T03:52:47;9.35;;;8.48;;
22211;SDS011;11275;52.488;13.462;2023-06-26T03:55:12;9.80;;;8.90;;
22211;SDS011;11275;52.488;13.462;2023-06-26T03:57:38;9.70;;;8.80;;
22211;SDS011;11275;52.488;13.462;2023-06-26T04:00:04;9.27;;;8.45;;
22211;SDS011;11275;52.488;13.462;2023-06-26T04:02:37;10.00;;;9.00;;
22211;SDS011;11275;52.488;13.462;2023-06-26T04:05:03;9.50;;;8.70;;
22211;SDS011;11275;52.488;13.462;2023-06-26T04:07:29;10.02;;;9.13;;
22211;SDS011;11275;52.488;13.462;2023-06-26T04:09:56;9.82;;;8.93;;
22211;SDS011;11275;52.488;13.462;2023-06-26T04:12:25;9.07;;;8.27;;
22211;SDS011;11275;52.488;13.462;2023-06-26T04:14:50;9.95;;;9.05;;
22211;SDS011;11275;52.488;13.462;2023-06-26T04:17:16;10.73;;;9.60;;
22211;SDS011;11275;52.488;13.462;2023-06-26T04:19:41;10.68;;;9.68;;
22211;SDS011;11275;52.488;13.462;2023-06-26T04:22:07;9.32;;;8.52;;
22211;SDS011;11275;52.488;13.462;2023-06-26T04:24:33;10.35;;;9.38;;
22211;SDS011;11275;52.488;13.462;2023-06-26T04:26:58;10.27;;;9.38;;
22211;SDS011;11275;52.488;13.462;2023-06-26T04:29:27;10.13;;;9.32;;
22211;SDS011;11275;52.488;13.462;2023-06-26T04:31:53;9.77;;;8.95;;
22211;SDS011;11275;52.488;13.462;2023-06-26T04:34:26;10.00;;;9.10;;
22211;SDS011;11275;52.488;13.462;2023-06-26T04:36:52;9.80;;;8.90;;
22211;SDS011;11275;52.488;13.462;2023-06-26T04:39:18;10.80;;;9.70;;
22211;SDS011;11275;52.488;13.462;2023-06-26T04:41:44;10.38;;;9.40;;
22211;SDS011;11275;52.488;13.462;2023-06-26T04:44:10;10.43;;;9.40;;
22211;SDS011;11275;52.488;13.462;2023-06-26T04:46:37;9.50;;;8.70;;
22211;SDS011;11275;52.488;13.462;2023-06-26T04:49:06;9.57;;;8.77;;
22211;SDS011;11275;52.488;13.462;2023-06-26T04:51:32;9.75;;;8.93;;
22211;SDS011;11275;52.488;13.462;2023-06-26T04:53:58;9.73;;;8.93;;
22211;SDS011;11275;52.488;13.462;2023-06-26T04:56:24;9.77;;;8.88;;
22211;SDS011;11275;52.488;13.462;2023-06-26T04:58:49;9.02;;;8.23;;
22211;SDS011;11275;52.488;13.462;2023-06-26T05:01:15;9.30;;;8.40;;
22211;SDS011;11275;52.488;13.462;2023-06-26T05:03:40;9.38;;;8.57;;
22211;SDS011;11275;52.488;13.462;2023-06-26T05:06:06;10.15;;;9.07;;
22211;SDS011;11275;52.488;13.462;2023-06-26T05:08:32;9.50;;;8.70;;
22211;SDS011;11275;52.488;13.462;2023-06-26T05:10:57;9.43;;;8.63;;
22211;SDS011;11275;52.488;13.462;2023-06-26T05:13:26;9.90;;;8.90;;
22211;SDS011;11275;52.488;13.462;2023-06-26T05:15:52;9.25;;;8.45;;
22211;SDS011;11275;52.488;13.462;2023-06-26T05:18:18;9.40;;;8.60;;
22211;SDS011;11275;52.488;13.462;2023-06-26T05:20:44;9.68;;;8.70;;
22211;SDS011;11275;52.488;13.462;2023-06-26T05:23:11;10.15;;;9.25;;
22211;SDS011;11275;52.488;13.462;2023-06-26T05:25:38;10.07;;;9.10;;
22211;SDS011;11275;52.488;13.462;2023-06-26T05:28:05;10.68;;;9.38;;
22211;SDS011;11275;52.488;13.462;2023-06-26T05:30:31;9.93;;;9.00;;
22211;SDS011;11275;52.488;13.462;2023-06-26T05:33:00;10.10;;;9.13;;
22211;SDS011;11275;52.488;13.462;2023-06-26T05:35:30;9.45;;;8.55;;
22211;SDS011;11275;52.488;13.462;2023-06-26T05:37:56;9.07;;;8.18;;
22211;SDS011;11275;52.488;13.462;2023-06-26T05:40:23;9.20;;;8.43;;
22211;SDS011;11275;52.488;13.462;2023-06-26T05:42:49;9.48;;;8.63;;
22211;SDS011;11275;52.488;13.462;2023-06-26T05:45:15;9.10;;;8.30;;
22211;SDS011;11275;52.488;13.462;2023-06-26T05:47:41;8.80;;;8.10;;
22211;SDS011;11275;52.488;13.462;2023-06-26T05:50:08;9.40;;;8.40;;
22211;SDS011;11275;52.488;13.462;2023-06-26T06:54:57;18.55;;;7.57;;
22211;SDS011;11275;52.488;13.462;2023-06-26T06:57:24;14.98;;;6.75;;
22211;SDS011;11275;52.488;13.462;2023-06-26T06:59:50;9.80;;;6.30;;
22211;SDS011;11275;52.488;13.462;2023-06-26T07:02:16;6.82;;;6.10;;
22211;SDS011;11275;52.488;13.462;2023-06-26T07:04:42;6.82;;;6.13;;
22211;SDS011;11275;52.488;13.462;2023-06-26T07:07:08;6.75;;;5.90;;
22211;SDS011;11275;52.488;13.462;2023-06-26T07:09:33;5.90;;;5.35;;
22211;SDS011;11275;52.488;13.462;2023-06-26T07:11:59;8.13;;;6.25;;
22211;SDS011;11275;52.488;13.462;2023-06-26T07:14:25;8.82;;;5.70;;
22211;SDS011;11275;52.488;13.462;2023-06-26T07:16:51;8.05;;;5.72;;
22211;SDS011;11275;52.488;13.462;2023-06-26T07:19:16;6.47;;;5.88;;
22211;SDS011;11275;52.488;13.462;2023-06-26T07:21:42;10.20;;;5.10;;
22211;SDS011;11275;52.488;13.462;2023-06-26T07:24:09;9.55;;;5.57;;
22211;SDS011;11275;52.488;13.462;2023-06-26T07:26:35;5.35;;;4.78;;
22211;SDS011;11275;52.488;13.462;2023-06-26T07:29:01;6.88;;;5.38;;
22211;SDS011;11275;52.488;13.462;2023-06-26T07:31:27;6.65;;;5.45;;
22211;SDS011;11275;52.488;13.462;2023-06-26T07:33:52;5.72;;;5.13;;
22211;SDS011;11275;52.488;13.462;2023-06-26T07:36:18;7.10;;;4.78;;
22211;SDS011;11275;52.488;13.462;2023-06-26T07:38:43;6.85;;;4.50;;
22211;SDS011;11275;52.488;13.462;2023-06-26T07:41:09;5.78;;;4.43;;
22211;SDS011;11275;52.488;13.462;2023-06-26T07:43:34;4.50;;;4.10;;
22211;SDS011;11275;52.488;13.462;2023-06-26T07:46:00;4.90;;;4.25;;
22211;SDS011;11275;52.488;13.462;2023-06-26T07:48:25;7.43;;;4.60;;
22211;SDS011;11275;52.488;13.462;2023-06-26T07:50:51;5.15;;;4.38;;
22211;SDS011;11275;52.488;13.462;2023-06-26T07:53:17;7.72;;;4.65;;
22211;SDS011;11275;52.488;13.462;2023-06-26T07:55:42;7.53;;;4.70;;
22211;SDS011;11275;52.488;13.462;2023-06-26T07:58:08;5.75;;;4.32;;
22211;SDS011;11275;52.488;13.462;2023-06-26T08:00:34;8.15;;;4.30;;
22211;SDS011;11275;52.488;13.462;2023-06-26T08:03:00;8.95;;;4.40;;
22211;SDS011;11275;52.488;13.462;2023-06-26T08:05:46;8.65;;;4.53;;
22211;SDS011;11275;52.488;13.462;2023-06-26T08:08:11;4.97;;;4.20;;
22211;SDS011;11275;52.488;13.462;2023-06-26T08:10:37;6.10;;;3.80;;
22211;SDS011;11275;52.488;13.462;2023-06-26T08:13:02;5.75;;;3.97;;
22211;SDS011;11275;52.488;13.462;2023-06-26T08:15:28;6.57;;;3.70;;
22211;SDS011;11275;52.488;13.462;2023-06-26T08:17:53;4.30;;;3.38;;
22211;SDS011;11275;52.488;13.462;2023-06-26T08:20:19;6.22;;;3.03;;
22211;SDS011;11275;52.488;13.462;2023-06-26T08:22:45;5.70;;;3.55;;
22211;SDS011;11275;52.488;13.462;2023-06-26T08:25:13;4.80;;;3.30;;
22211;SDS011;11275;52.488;13.462;2023-06-26T08:27:38;4.82;;;3.50;;
22211;SDS011;11275;52.488;13.462;2023-06-26T08:30:04;3.85;;;3.53;;
22211;SDS011;11275;52.488;13.462;2023-06-26T08:32:30;3.97;;;3.20;;
22211;SDS011;11275;52.488;13.462;2023-06-26T08:34:56;4.78;;;3.22;;
22211;SDS011;11275;52.488;13.462;2023-06-26T08:37:21;4.55;;;3.28;;
22211;SDS011;11275;52.488;13.462;2023-06-26T08:39:47;3.28;;;2.97;;
22211;SDS011;11275;52.488;13.462;2023-06-26T08:42:13;4.20;;;2.90;;
22211;SDS011;11275;52.488;13.462;2023-06-26T08:44:39;3.10;;;2.70;;
22211;SDS011;11275;52.488;13.462;2023-06-26T08:47:04;2.95;;;2.65;;
22211;SDS011;11275;52.488;13.462;2023-06-26T08:52:24;4.88;;;2.90;;
22211;SDS011;11275;52.488;13.462;2023-06-26T08:54:58;3.40;;;2.70;;
22211;SDS011;11275;52.488;13.462;2023-06-26T08:57:26;4.65;;;2.42;;
22211;SDS011;11275;52.488;13.462;2023-06-26T08:59:52;8.05;;;3.05;;
22211;SDS011;11275;52.488;13.462;2023-06-26T09:02:19;3.08;;;2.78;;
22211;SDS011;11275;52.488;13.462;2023-06-26T09:04:48;4.15;;;2.63;;
22211;SDS011;11275;52.488;13.462;2023-06-26T09:07:17;2.60;;;2.40;;
22211;SDS011;11275;52.488;13.462;2023-06-26T09:09:44;3.30;;;2.50;;
22211;SDS011;11275;52.488;13.462;2023-06-26T09:12:09;5.57;;;2.85;;
22211;SDS011;11275;52.488;13.462;2023-06-26T09:14:36;2.80;;;2.60;;
22211;SDS011;11275;52.488;13.462;2023-06-26T09:17:02;3.30;;;3.00;;
22211;SDS011;11275;52.488;13.462;2023-06-26T09:19:28;4.28;;;2.88;;
22211;SDS011;11275;52.488;13.462;2023-06-26T09:21:54;8.23;;;3.17;;
22211;SDS011;11275;52.488;13.462;2023-06-26T09:24:21;8.98;;;2.90;;
22211;SDS011;11275;52.488;13.462;2023-06-26T09:26:47;4.97;;;2.90;;
22211;SDS011;11275;52.488;13.462;2023-06-26T09:29:14;3.97;;;2.72;;
22211;SDS011;11275;52.488;13.462;2023-06-26T09:31:42;7.13;;;2.80;;
22211;SDS011;11275;52.488;13.462;2023-06-26T09:34:08;6.68;;;3.22;;
22211;SDS011;11275;52.488;13.462;2023-06-26T09:36:35;9.38;;;2.70;;
22211;SDS011;11275;52.488;13.462;2023-06-26T09:39:04;4.93;;;2.80;;
22211;SDS011;11275;52.488;13.462;2023-06-26T09:41:33;3.10;;;2.70;;
22211;SDS011;11275;52.488;13.462;2023-06-26T09:44:01;5.82;;;2.88;;
22211;SDS011;11275;52.488;13.462;2023-06-26T09:46:28;3.30;;;3.00;;
22211;SDS011;11275;52.488;13.462;2023-06-26T09:49:08;4.95;;;3.17;;
22211;SDS011;11275;52.488;13.462;2023-06-26T09:51:36;3.58;;;3.10;;
22211;SDS011;11275;52.488;13.462;2023-06-26T09:54:03;3.65;;;3.22;;
22211;SDS011;11275;52.488;13.462;2023-06-26T09:56:30;3.40;;;3.10;;
22211;SDS011;11275;52.488;13.462;2023-06-26T09:58:56;3.10;;;2.47;;
22211;SDS011;11275;52.488;13.462;2023-06-26T10:01:23;3.40;;;2.67;;
22211;SDS011;11275;52.488;13.462;2023-06-26T10:03:50;4.82;;;2.80;;
22211;SDS011;11275;52.488;13.462;2023-06-26T10:06:17;4.85;;;2.97;;
22211;SDS011;11275;52.488;13.462;2023-06-26T10:08:46;4.07;;;3.20;;
22211;SDS011;11275;52.488;13.462;2023-06-26T10:11:14;3.65;;;3.25;;
22211;SDS011;11275;52.488;13.462;2023-06-26T10:13:43;3.60;;;3.30;;
22211;SDS011;11275;52.488;13.462;2023-06-26T10:16:13;4.55;;;3.00;;
22211;SDS011;11275;52.488;13.462;2023-06-26T10:18:56;4.97;;;3.08;;
22211;SDS011;11275;52.488;13.462;2023-06-26T10:21:26;3.75;;;3.05;;
22211;SDS011;11275;52.488;13.462;2023-06-26T10:23:54;5.97;;;2.90;;
22211;SDS011;11275;52.488;13.462;2023-06-26T10:26:21;6.93;;;2.97;;
22211;SDS011;11275;52.488;13.462;2023-06-26T10:28:49;3.17;;;2.65;;
22211;SDS011;11275;52.488;13.462;2023-06-26T10:31:18;8.02;;;3.08;;
22211;SDS011;11275;52.488;13.462;2023-06-26T10:33:46;4.03;;;2.83;;
22211;SDS011;11275;52.488;13.462;2023-06-26T10:36:17;3.08;;;2.78;;
22211;SDS011;11275;52.488;13.462;2023-06-26T10:38:53;4.13;;;2.58;;
22211;SDS011;11275;52.488;13.462;2023-06-26T10:41:21;3.53;;;2.70;;
22211;SDS011;11275;52.488;13.462;2023-06-26T10:43:51;5.15;;;2.38;;
22211;SDS011;11275;52.488;13.462;2023-06-26T10:46:53;4.47;;;2.85;;
22211;SDS011;11275;52.488;13.462;2023-06-26T10:49:21;3.55;;;2.45;;
22211;SDS011;11275;52.488;13.462;2023-06-26T10:51:51;4.32;;;2.53;;
22211;SDS011;11275;52.488;13.462;2023-06-26T10:54:19;2.85;;;2.65;;
22211;SDS011;11275;52.488;13.462;2023-06-26T10:56:46;3.15;;;2.90;;
22211;SDS011;11275;52.488;13.462;2023-06-26T10:59:13;3.00;;;2.70;;
22211;SDS011;11275;52.488;13.462;2023-06-26T11:01:42;6.80;;;2.60;;
22211;SDS011;11275;52.488;13.462;2023-06-26T11:04:08;2.63;;;2.42;;
22211;SDS011;11275;52.488;13.462;2023-06-26T11:06:36;3.33;;;2.40;;
22211;SDS011;11275;52.488;13.462;2023-06-26T11:14:17;3.63;;;2.80;;
22211;SDS011;11275;52.488;13.462;2023-06-26T11:16:44;3.30;;;2.75;;
22211;SDS011;11275;52.488;13.462;2023-06-26T11:19:10;5.00;;;2.92;;
22211;SDS011;11275;52.488;13.462;2023-06-26T11:21:39;3.50;;;2.75;;
22211;SDS011;11275;52.488;13.462;2023-06-26T11:24:06;4.95;;;2.83;;
22211;SDS011;11275;52.488;13.462;2023-06-26T11:26:39;4.97;;;2.40;;
22211;SDS011;11275;52.488;13.462;2023-06-26T11:29:06;6.70;;;2.80;;
22211;SDS011;11275;52.488;13.462;2023-06-26T11:31:33;3.17;;;2.58;;
22211;SDS011;11275;52.488;13.462;2023-06-26T11:34:07;3.63;;;2.58;;
22211;SDS011;11275;52.488;13.462;2023-06-26T11:36:36;3.53;;;2.83;;
22211;SDS011;11275;52.488;13.462;2023-06-26T11:39:06;3.67;;;2.67;;
22211;SDS011;11275;52.488;13.462;2023-06-26T11:41:32;3.00;;;2.80;;
22211;SDS011;11275;52.488;13.462;2023-06-26T11:44:00;3.65;;;2.97;;
22211;SDS011;11275;52.488;13.462;2023-06-26T11:46:27;4.57;;;2.72;;
22211;SDS011;11275;52.488;13.462;2023-06-26T11:48:53;3.28;;;2.72;;
22211;SDS011;11275;52.488;13.462;2023-06-26T11:51:19;3.22;;;2.90;;
22211;SDS011;11275;52.488;13.462;2023-06-26T11:53:46;6.65;;;3.30;;
22211;SDS011;11275;52.488;13.462;2023-06-26T11:56:13;3.25;;;2.95;;
22211;SDS011;11275;52.488;13.462;2023-06-26T11:58:56;3.92;;;2.92;;
22211;SDS011;11275;52.488;13.462;2023-06-26T12:01:23;3.00;;;2.72;;
22211;SDS011;11275;52.488;13.462;2023-06-26T12:03:50;2.60;;;2.40;;
22211;SDS011;11275;52.488;13.462;2023-06-26T12:06:16;3.70;;;2.97;;
22211;SDS011;11275;52.488;13.462;2023-06-26T12:08:42;4.75;;;3.08;;
22211;SDS011;11275;52.488;13.462;2023-06-26T12:11:08;3.95;;;2.88;;
22211;SDS011;11275;52.488;13.462;2023-06-26T12:13:35;3.35;;;2.60;;
22211;SDS011;11275;52.488;13.462;2023-06-26T12:16:00;3.53;;;2.67;;
22211;SDS011;11275;52.488;13.462;2023-06-26T12:18:32;3.60;;;2.85;;
22211;SDS011;11275;52.488;13.462;2023-06-26T12:20:59;5.45;;;3.03;;
22211;SDS011;11275;52.488;13.462;2023-06-26T12:23:31;3.03;;;2.80;;
22211;SDS011;11275;52.488;13.462;2023-06-26T12:25:58;3.58;;;2.80;;
22211;SDS011;11275;52.488;13.462;2023-06-26T12:28:24;3.50;;;3.20;;
22211;SDS011;11275;52.488;13.462;2023-06-26T12:33:44;4.25;;;3.38;;
22211;SDS011;11275;52.488;13.462;2023-06-26T12:36:10;5.97;;;3.13;;
22211;SDS011;11275;52.488;13.462;2023-06-26T12:38:40;9.13;;;3.13;;
22211;SDS011;11275;52.488;13.462;2023-06-26T12:41:11;11.95;;;3.55;;
22211;SDS011;11275;52.488;13.462;2023-06-26T12:43:39;11.55;;;3.58;;
22211;SDS011;11275;52.488;13.462;2023-06-26T12:46:05;9.02;;;3.15;;
22211;SDS011;11275;52.488;13.462;2023-06-26T12:48:40;6.95;;;3.00;;
22211;SDS011;11275;52.488;13.462;2023-06-26T12:51:14;4.43;;;3.03;;
22211;SDS011;11275;52.488;13.462;2023-06-26T12:53:41;7.30;;;2.97;;
22211;SDS011;11275;52.488;13.462;2023-06-26T12:56:07;5.63;;;3.08;;
22211;SDS011;11275;52.488;13.462;2023-06-26T12:58:34;10.95;;;3.17;;
22211;SDS011;11275;52.488;13.462;2023-06-26T13:01:05;7.78;;;3.33;;
22211;SDS011;11275;52.488;13.462;2023-06-26T13:03:41;4.47;;;3.20;;
22211;SDS011;11275;52.488;13.462;2023-06-26T13:06:07;5.03;;;2.85;;
22211;SDS011;11275;52.488;13.462;2023-06-26T13:08:33;6.25;;;3.65;;
22211;SDS011;11275;52.488;13.462;2023-06-26T13:10:59;5.22;;;2.90;;
22211;SDS011;11275;52.488;13.462;2023-06-26T13:13:25;3.28;;;2.80;;
22211;SDS011;11275;52.488;13.462;2023-06-26T13:15:51;6.88;;;3.38;;
22211;SDS011;11275;52.488;13.462;2023-06-26T13:18:16;4.30;;;3.45;;
22211;SDS011;11275;52.488;13.462;2023-06-26T13:20:42;4.05;;;3.42;;
22211;SDS011;11275;52.488;13.462;2023-06-26T13:23:07;5.45;;;2.75;;
22211;SDS011;11275;52.488;13.462;2023-06-26T13:25:33;3.92;;;3.05;;
22211;SDS011;11275;52.488;13.462;2023-06-26T13:27:59;5.47;;;3.10;;
22211;SDS011;11275;52.488;13.462;2023-06-26T13:30:24;3.97;;;3.50;;
22211;SDS011;11275;52.488;13.462;2023-06-26T13:32:50;3.95;;;3.42;;
22211;SDS011;11275;52.488;13.462;2023-06-26T13:35:16;3.97;;;3.55;;
22211;SDS011;11275;52.488;13.462;2023-06-26T13:37:41;7.43;;;3.60;;
22211;SDS011;11275;52.488;13.462;2023-06-26T13:40:07;4.88;;;3.63;;
22211;SDS011;11275;52.488;13.462;2023-06-26T13:42:34;7.25;;;3.53;;
22211;SDS011;11275;52.488;13.462;2023-06-26T13:45:01;5.97;;;3.40;;
22211;SDS011;11275;52.488;13.462;2023-06-26T13:47:28;3.85;;;3.20;;
22211;SDS011;11275;52.488;13.462;2023-06-26T13:49:54;6.15;;;3.45;;
22211;SDS011;11275;52.488;13.462;2023-06-26T13:52:19;3.63;;;3.33;;
22211;SDS011;11275;52.488;13.462;2023-06-26T13:54:45;4.47;;;3.70;;
22211;SDS011;11275;52.488;13.462;2023-06-26T13:57:11;5.40;;;3.47;;
22211;SDS011;11275;52.488;13.462;2023-06-26T13:59:38;6.03;;;3.30;;
22211;SDS011;11275;52.488;13.462;2023-06-26T14:02:09;9.88;;;4.00;;
22211;SDS011;11275;52.488;13.462;2023-06-26T14:04:35;8.20;;;3.72;;
22211;SDS011;11275;52.488;13.462;2023-06-26T14:07:02;6.85;;;4.28;;
22211;SDS011;11275;52.488;13.462;2023-06-26T14:09:27;7.28;;;3.95;;
22211;SDS011;11275;52.488;13.462;2023-06-26T14:11:53;4.82;;;3.35;;
22211;SDS011;11275;52.488;13.462;2023-06-26T14:14:19;4.97;;;3.60;;
22211;SDS011;11275;52.488;13.462;2023-06-26T14:16:44;4.50;;;3.83;;
22211;SDS011;11275;52.488;13.462;2023-06-26T14:19:10;5.70;;;3.90;;
22211;SDS011;11275;52.488;13.462;2023-06-26T14:21:39;6.47;;;3.90;;
22211;SDS011;11275;52.488;13.462;2023-06-26T14:24:05;8.73;;;4.00;;
22211;SDS011;11275;52.488;13.462;2023-06-26T14:26:31;44.50;;;6.25;;
22211;SDS011;11275;52.488;13.462;2023-06-26T14:28:58;35.22;;;4.53;;
22211;SDS011;11275;52.488;13.462;2023-06-26T14:31:24;16.52;;;3.80;;
22211;SDS011;11275;52.488;13.462;2023-06-26T14:33:50;6.53;;;3.63;;
22211;SDS011;11275;52.488;13.462;2023-06-26T14:36:16;13.38;;;3.60;;
22211;SDS011;11275;52.488;13.462;2023-06-26T14:38:41;12.48;;;3.47;;
22211;SDS011;11275;52.488;13.462;2023-06-26T14:41:07;9.25;;;3.55;;
22211;SDS011;11275;52.488;13.462;2023-06-26T14:43:33;7.65;;;3.40;;
22211;SDS011;11275;52.488;13.462;2023-06-26T14:45:58;7.97;;;3.40;;
22211;SDS011;11275;52.488;13.462;2023-06-26T14:48:24;4.22;;;3.22;;
22211;SDS011;11275;52.488;13.462;2023-06-26T14:50:49;5.15;;;3.63;;
22211;SDS011;11275;52.488;13.462;2023-06-26T14:53:15;4.88;;;3.53;;
22211;SDS011;11275;52.488;13.462;2023-06-26T14:55:41;5.65;;;4.10;;
22211;SDS011;11275;52.488;13.462;2023-06-26T14:58:06;5.43;;;3.85;;
22211;SDS011;11275;52.488;13.462;2023-06-26T15:00:32;4.50;;;3.63;;
22211;SDS011;11275;52.488;13.462;2023-06-26T15:02:57;4.10;;;3.70;;
22211;SDS011;11275;52.488;13.462;2023-06-26T15:05:23;5.53;;;3.85;;
22211;SDS011;11275;52.488;13.462;2023-06-26T15:07:49;12.02;;;4.82;;
22211;SDS011;11275;52.488;13.462;2023-06-26T15:10:15;9.27;;;7.00;;
22211;SDS011;11275;52.488;13.462;2023-06-26T15:12:41;8.15;;;6.97;;
22211;SDS011;11275;52.488;13.462;2023-06-26T15:15:07;7.30;;;6.43;;
22211;SDS011;11275;52.488;13.462;2023-06-26T15:17:34;8.70;;;7.28;;
22211;SDS011;11275;52.488;13.462;2023-06-26T15:19:59;8.55;;;6.60;;
22211;SDS011;11275;52.488;13.462;2023-06-26T15:22:28;7.53;;;6.35;;
22211;SDS011;11275;52.488;13.462;2023-06-26T15:24:54;6.75;;;5.95;;
22211;SDS011;11275;52.488;13.462;2023-06-26T15:27:19;7.13;;;5.95;;
22211;SDS011;11275;52.488;13.462;2023-06-26T15:29:45;5.80;;;5.10;;
22211;SDS011;11275;52.488;13.462;2023-06-26T15:32:11;5.68;;;4.65;;
22211;SDS011;11275;52.488;13.462;2023-06-26T15:34:36;4.63;;;4.15;;
22211;SDS011;11275;52.488;13.462;2023-06-26T15:37:02;4.20;;;3.33;;
22211;SDS011;11275;52.488;13.462;2023-06-26T15:39:28;3.42;;;3.13;;
22211;SDS011;11275;52.488;13.462;2023-06-26T15:41:54;3.67;;;3.28;;
22211;SDS011;11275;52.488;13.462;2023-06-26T15:44:19;3.17;;;2.90;;
22211;SDS011;11275;52.488;13.462;2023-06-26T15:46:45;3.83;;;3.30;;
22211;SDS011;11275;52.488;13.462;2023-06-26T15:49:11;4.15;;;3.75;;
22211;SDS011;11275;52.488;13.462;2023-06-26T15:51:36;4.15;;;3.75;;